createdAt,value
2022-12-09T00:01:47.337Z,88.98
2022-12-09T00:04:14.958Z,89.01
2022-12-09T00:06:42.626Z,88.90
2022-12-09T00:09:10.253Z,88.87
2022-12-09T00:11:37.977Z,88.78
2022-12-09T00:14:05.671Z,88.66
2022-12-09T00:16:33.697Z,88.69
2022-12-09T00:19:01.537Z,88.80
2022-12-09T00:21:29.632Z,88.79
2022-12-09T00:23:57.169Z,88.83
2022-12-09T00:26:24.902Z,88.82
2022-12-09T00:28:52.545Z,88.73
2022-12-09T00:31:20.290Z,88.82
2022-12-09T00:33:48.102Z,88.69
2022-12-09T00:36:16.072Z,88.70
2022-12-09T00:38:43.967Z,88.67
2022-12-09T00:41:11.709Z,88.86
2022-12-09T00:43:39.106Z,88.86
2022-12-09T00:46:06.566Z,88.86
2022-12-09T00:48:34.229Z,88.82
2022-12-09T00:51:02.242Z,88.92
2022-12-09T00:53:30.183Z,88.78
2022-12-09T00:55:57.788Z,88.74
2022-12-09T00:58:25.450Z,88.95
2022-12-09T01:00:53.285Z,88.85
2022-12-09T01:03:21.439Z,88.88
2022-12-09T01:05:49.357Z,88.82
2022-12-09T01:08:17.032Z,88.75
2022-12-09T01:10:44.880Z,88.79
2022-12-09T01:13:12.574Z,88.69
2022-12-09T01:15:40.380Z,88.71
2022-12-09T01:18:08.538Z,88.69
2022-12-09T01:20:35.969Z,88.80
2022-12-09T01:23:03.873Z,88.88
2022-12-09T01:25:31.683Z,88.94
2022-12-09T01:27:59.357Z,88.86
2022-12-09T01:30:27.170Z,88.95
2022-12-09T01:32:54.759Z,88.73
2022-12-09T01:35:22.899Z,88.89
2022-12-09T01:37:50.678Z,88.88
2022-12-09T01:40:18.424Z,88.96
2022-12-09T01:42:46.261Z,88.97
2022-12-09T01:45:14.180Z,89.12
2022-12-09T01:47:41.943Z,89.22
2022-12-09T01:50:09.591Z,89.20
2022-12-09T01:52:37.576Z,89.18
2022-12-09T01:55:05.413Z,89.21
2022-12-09T01:57:33.297Z,89.37
2022-12-09T02:00:00.867Z,89.51
2022-12-09T02:02:28.986Z,89.64
2022-12-09T02:04:56.582Z,90.16
2022-12-09T02:07:24.584Z,90.45
2022-12-09T02:09:52.169Z,90.48
2022-12-09T02:12:19.805Z,90.49
2022-12-09T02:14:47.950Z,90.88
2022-12-09T02:17:15.524Z,90.98
2022-12-09T02:19:43.151Z,91.26
2022-12-09T02:22:10.800Z,91.19
2022-12-09T02:24:38.715Z,91.59
2022-12-09T02:27:06.335Z,91.65
2022-12-09T02:29:34.119Z,92.06
2022-12-09T02:32:01.975Z,91.87
2022-12-09T02:34:30.018Z,91.89
2022-12-09T02:36:57.898Z,91.92
2022-12-09T02:39:25.687Z,92.07
2022-12-09T02:41:53.509Z,92.08
2022-12-09T02:44:21.196Z,91.95
2022-12-09T02:46:48.914Z,91.94
2022-12-09T02:49:17.088Z,91.84
2022-12-09T02:51:44.832Z,92.10
2022-12-09T02:54:12.691Z,91.97
2022-12-09T02:56:40.263Z,91.69
2022-12-09T02:59:07.881Z,91.62
2022-12-09T03:01:35.685Z,91.46
2022-12-09T03:04:03.385Z,91.57
2022-12-09T03:06:31.436Z,91.50
2022-12-09T03:08:59.028Z,91.50
2022-12-09T03:11:27.187Z,91.58
2022-12-09T03:13:54.867Z,91.58
2022-12-09T03:16:22.583Z,91.51
2022-12-09T03:18:50.637Z,91.36
2022-12-09T03:21:18.301Z,91.26
2022-12-09T03:23:46.151Z,91.51
2022-12-09T03:26:13.585Z,91.29
2022-12-09T03:28:41.517Z,91.35
2022-12-09T03:31:09.157Z,91.21
2022-12-09T03:33:36.694Z,91.19
2022-12-09T03:36:04.321Z,91.05
2022-12-09T03:38:32.073Z,91.18
2022-12-09T03:40:59.491Z,91.18
2022-12-09T03:43:26.960Z,91.12
2022-12-09T03:45:54.641Z,91.27
2022-12-09T03:48:22.307Z,91.26
2022-12-09T03:50:50.327Z,91.12
2022-12-09T03:53:18.107Z,91.08
2022-12-09T03:55:45.484Z,90.88
2022-12-09T03:58:13.755Z,90.92
2022-12-09T04:00:41.521Z,91.00
2022-12-09T04:03:09.420Z,91.19
2022-12-09T04:05:37.432Z,91.14
2022-12-09T04:08:05.034Z,91.12
2022-12-09T04:10:32.623Z,91.14
2022-12-09T04:13:00.281Z,91.11
2022-12-09T04:15:28.119Z,91.15
2022-12-09T04:17:55.885Z,91.31
2022-12-09T04:20:23.714Z,91.18
2022-12-09T04:22:51.642Z,91.28
2022-12-09T04:25:19.410Z,91.26
2022-12-09T04:27:47.387Z,91.18
2022-12-09T04:30:15.107Z,91.00
2022-12-09T04:32:42.721Z,90.90
2022-12-09T04:35:10.682Z,90.90
2022-12-09T04:37:38.574Z,90.85
2022-12-09T04:40:06.896Z,91.00
2022-12-09T04:42:35.347Z,91.01
2022-12-09T04:45:03.201Z,90.84
2022-12-09T04:47:31.130Z,90.95
2022-12-09T04:49:58.737Z,90.94
2022-12-09T04:52:26.414Z,91.15
2022-12-09T04:54:54.102Z,91.13
2022-12-09T04:57:21.580Z,91.22
2022-12-09T04:59:49.439Z,91.12
2022-12-09T05:02:17.007Z,91.14
2022-12-09T05:04:44.874Z,91.06
2022-12-09T05:07:13.210Z,90.96
2022-12-09T05:09:42.405Z,91.02
2022-12-09T05:12:10.440Z,91.08
2022-12-09T05:14:38.458Z,91.30
2022-12-09T05:17:06.088Z,91.09
2022-12-09T05:19:33.914Z,90.99
2022-12-09T05:22:01.775Z,91.04
2022-12-09T05:24:29.612Z,91.00
2022-12-09T05:26:57.173Z,90.93
2022-12-09T05:29:24.872Z,90.92
2022-12-09T05:31:52.584Z,91.02
2022-12-09T05:34:20.553Z,91.10
2022-12-09T05:36:48.643Z,90.97
2022-12-09T05:39:16.410Z,90.87
2022-12-09T05:41:44.045Z,90.85
2022-12-09T05:44:11.759Z,90.72
2022-12-09T05:46:39.658Z,90.76
2022-12-09T05:49:07.965Z,90.78
2022-12-09T05:51:35.683Z,91.03
2022-12-09T05:54:03.596Z,90.97
2022-12-09T05:56:31.700Z,91.04
2022-12-09T05:58:59.544Z,90.97
2022-12-09T06:01:27.181Z,91.15
2022-12-09T06:03:55.452Z,91.19
2022-12-09T06:06:23.996Z,91.18
2022-12-09T06:08:51.689Z,91.42
2022-12-09T06:11:20.057Z,91.44
2022-12-09T06:13:48.510Z,91.29
2022-12-09T06:16:16.146Z,91.37
2022-12-09T06:18:43.822Z,91.54
2022-12-09T06:21:12.179Z,91.56
2022-12-09T06:23:39.708Z,91.66
2022-12-09T06:26:07.567Z,91.69
2022-12-09T06:28:35.333Z,91.70
2022-12-09T06:31:03.028Z,91.79
2022-12-09T06:33:54.120Z,91.78
2022-12-09T06:36:19.633Z,91.87
2022-12-09T06:38:47.814Z,91.80
2022-12-09T06:41:15.630Z,91.84
2022-12-09T06:43:43.934Z,91.93
2022-12-09T06:46:12.006Z,91.94
2022-12-09T06:48:39.597Z,91.85
2022-12-09T06:51:08.152Z,91.76
2022-12-09T06:53:36.105Z,91.69
2022-12-09T06:56:11.049Z,91.70
2022-12-09T06:58:39.846Z,91.66
2022-12-09T07:01:07.962Z,91.63
2022-12-09T07:03:35.906Z,91.55
2022-12-09T07:06:04.525Z,91.60
2022-12-09T07:08:32.226Z,91.72
2022-12-09T07:11:00.217Z,91.75
2022-12-09T07:13:27.806Z,91.41
2022-12-09T07:15:56.220Z,91.41
2022-12-09T07:18:23.769Z,91.32
2022-12-09T07:20:51.789Z,91.38
2022-12-09T07:23:19.581Z,91.45
2022-12-09T07:25:47.901Z,91.43
2022-12-09T07:28:15.686Z,91.29
2022-12-09T07:30:44.074Z,91.11
2022-12-09T07:33:11.872Z,91.08
2022-12-09T07:35:40.092Z,91.05
2022-12-09T07:38:08.059Z,91.12
2022-12-09T07:40:35.867Z,91.04
2022-12-09T07:43:03.246Z,90.97
2022-12-09T07:45:31.424Z,90.83
2022-12-09T07:47:59.462Z,90.82
2022-12-09T07:50:27.634Z,90.54
2022-12-09T07:52:55.549Z,90.53
2022-12-09T07:55:23.477Z,90.58
2022-12-09T07:57:51.057Z,90.55
2022-12-09T08:00:19.493Z,90.48
2022-12-09T08:02:47.314Z,90.48
2022-12-09T08:05:15.467Z,90.22
2022-12-09T08:07:44.893Z,90.11
2022-12-09T08:10:13.114Z,89.98
2022-12-09T08:12:40.838Z,89.98
2022-12-09T08:15:08.677Z,90.08
2022-12-09T08:17:37.319Z,89.97
2022-12-09T08:20:05.454Z,89.90
2022-12-09T08:22:33.680Z,89.75
2022-12-09T08:25:02.002Z,89.56
2022-12-09T08:27:29.720Z,89.40
2022-12-09T08:29:57.912Z,89.44
2022-12-09T08:32:25.705Z,89.39
2022-12-09T08:34:53.971Z,89.31
2022-12-09T08:37:21.733Z,89.30
2022-12-09T08:39:49.647Z,89.19
2022-12-09T08:42:17.660Z,89.18
2022-12-09T08:44:45.925Z,89.05
2022-12-09T08:47:13.936Z,89.01
2022-12-09T08:49:43.635Z,88.84
2022-12-09T08:52:12.782Z,88.91
2022-12-09T08:54:40.744Z,88.86
2022-12-09T08:57:08.896Z,88.83
2022-12-09T08:59:41.870Z,88.72
2022-12-09T09:02:12.758Z,88.71
2022-12-09T09:04:41.159Z,88.71
2022-12-09T09:07:09.213Z,88.57
2022-12-09T09:09:37.500Z,88.14
2022-12-09T09:12:05.568Z,88.02
2022-12-09T09:14:33.459Z,87.59
2022-12-09T09:17:01.189Z,86.85
2022-12-09T09:19:29.394Z,86.66
2022-12-09T09:21:57.838Z,86.33
2022-12-09T09:24:26.014Z,86.14
2022-12-09T09:26:54.025Z,86.09
2022-12-09T09:29:22.126Z,85.25
2022-12-09T09:31:50.434Z,84.34
2022-12-09T09:34:18.338Z,84.62
2022-12-09T09:36:46.851Z,84.46
2022-12-09T09:39:15.265Z,83.73
2022-12-09T09:41:43.046Z,83.51
2022-12-09T09:44:11.424Z,82.94
2022-12-09T09:46:39.688Z,81.76
2022-12-09T09:49:07.692Z,82.32
2022-12-09T09:51:35.756Z,82.75
2022-12-09T09:54:08.429Z,83.11
2022-12-09T09:56:36.807Z,82.49
2022-12-09T09:59:04.551Z,82.52
2022-12-09T10:01:32.801Z,82.27
2022-12-09T10:04:01.678Z,82.26
2022-12-09T10:06:30.123Z,82.19
2022-12-09T10:08:58.138Z,81.70
2022-12-09T10:11:26.081Z,81.53
2022-12-09T10:13:54.047Z,81.44
2022-12-09T10:16:23.015Z,81.51
2022-12-09T10:18:51.018Z,81.74
2022-12-09T10:21:19.431Z,81.51
2022-12-09T10:23:47.815Z,81.70
2022-12-09T10:26:15.845Z,81.11
2022-12-09T10:28:43.770Z,80.92
2022-12-09T10:31:11.841Z,81.18
2022-12-09T10:33:39.992Z,81.52
2022-12-09T10:36:08.496Z,82.09
2022-12-09T10:38:36.414Z,81.48
2022-12-09T10:41:04.402Z,81.77
2022-12-09T10:43:31.998Z,81.40
2022-12-09T10:48:47.435Z,81.06
2022-12-09T10:51:15.713Z,80.59
2022-12-09T10:53:44.012Z,80.23
2022-12-09T10:56:11.931Z,80.33
2022-12-09T10:58:39.988Z,80.15
2022-12-09T11:01:07.795Z,80.12
2022-12-09T11:03:36.265Z,79.92
2022-12-09T11:06:04.268Z,79.69
2022-12-09T11:08:32.188Z,80.19
2022-12-09T11:11:00.412Z,80.32
2022-12-09T11:13:28.785Z,80.61
2022-12-09T11:15:57.606Z,80.46
2022-12-09T11:18:25.848Z,81.24
2022-12-09T11:20:53.503Z,81.28
2022-12-09T11:23:21.281Z,81.35
2022-12-09T11:25:49.186Z,81.59
2022-12-09T11:28:17.270Z,81.34
2022-12-09T11:31:04.790Z,80.93
2022-12-09T11:33:32.498Z,80.26
2022-12-09T11:36:00.076Z,80.50
2022-12-09T11:38:28.235Z,80.29
2022-12-09T11:40:56.176Z,80.25
2022-12-09T11:43:23.744Z,80.38
2022-12-09T11:45:51.251Z,80.35
2022-12-09T11:48:30.281Z,79.43
2022-12-09T11:51:01.845Z,79.21
2022-12-09T11:53:29.484Z,79.26
2022-12-09T11:55:56.950Z,79.02
2022-12-09T11:58:24.470Z,78.82
2022-12-09T12:00:52.227Z,78.59
2022-12-09T12:03:20.055Z,78.55
2022-12-09T12:05:47.750Z,78.47
2022-12-09T12:08:15.656Z,78.72
2022-12-09T12:10:43.468Z,78.92
2022-12-09T12:13:11.365Z,78.83
2022-12-09T12:15:38.916Z,78.74
2022-12-09T12:18:06.453Z,79.44
2022-12-09T12:20:33.931Z,79.46
2022-12-09T12:23:01.791Z,79.70
2022-12-09T12:25:29.561Z,80.26
2022-12-09T12:27:57.570Z,80.38
2022-12-09T12:30:25.305Z,79.98
2022-12-09T12:33:40.666Z,80.52
2022-12-09T12:35:40.822Z,80.83
2022-12-09T12:38:08.333Z,81.05
2022-12-09T12:40:35.951Z,81.06
2022-12-09T12:43:03.401Z,80.90
2022-12-09T12:45:31.526Z,81.26
2022-12-09T12:47:59.460Z,81.30
2022-12-09T12:50:27.170Z,81.12
2022-12-09T12:52:56.385Z,81.25
2022-12-09T12:55:24.327Z,81.71
2022-12-09T12:57:51.948Z,81.71
2022-12-09T13:00:19.640Z,81.93
2022-12-09T13:02:47.294Z,81.97
2022-12-09T13:05:14.862Z,82.18
2022-12-09T13:07:43.597Z,82.20
2022-12-09T13:10:11.489Z,82.00
2022-12-09T13:12:39.282Z,82.48
2022-12-09T13:15:06.946Z,82.44
2022-12-09T13:17:34.872Z,82.52
2022-12-09T13:20:02.389Z,82.65
2022-12-09T13:22:29.940Z,82.86
2022-12-09T13:25:00.279Z,82.72
2022-12-09T13:27:27.998Z,82.78
2022-12-09T13:29:55.904Z,82.68
2022-12-09T13:32:23.330Z,82.81
2022-12-09T13:34:51.205Z,83.00
2022-12-09T13:37:18.725Z,82.97
2022-12-09T13:39:46.511Z,83.13
2022-12-09T13:42:14.337Z,83.27
2022-12-09T13:44:41.981Z,83.39
2022-12-09T13:47:10.143Z,83.56
2022-12-09T13:49:37.879Z,83.69
2022-12-09T13:52:05.703Z,83.63
2022-12-09T13:54:33.486Z,83.76
2022-12-09T13:57:01.841Z,83.70
2022-12-09T13:59:29.708Z,83.83
2022-12-09T14:01:57.507Z,83.95
2022-12-09T14:04:25.343Z,84.12
2022-12-09T14:06:53.089Z,84.09
2022-12-09T14:09:20.756Z,84.06
2022-12-09T14:11:48.283Z,84.13
2022-12-09T14:14:16.434Z,84.25
2022-12-09T14:16:43.914Z,84.37
2022-12-09T14:19:15.435Z,84.63
2022-12-09T14:21:43.404Z,84.86
2022-12-09T14:24:11.007Z,85.03
2022-12-09T14:26:38.828Z,85.04
2022-12-09T14:29:06.199Z,85.14
2022-12-09T14:31:33.974Z,85.26
2022-12-09T14:34:01.500Z,85.43
2022-12-09T14:36:29.527Z,85.51
2022-12-09T14:41:45.168Z,85.75
2022-12-09T14:44:12.915Z,85.84
2022-12-09T14:46:40.951Z,86.10
2022-12-09T14:49:08.434Z,86.22
2022-12-09T14:51:36.021Z,86.39
2022-12-09T14:54:03.629Z,86.40
2022-12-09T14:56:31.386Z,86.40
2022-12-09T14:58:58.929Z,86.62
2022-12-09T15:01:26.400Z,86.63
2022-12-09T15:03:53.976Z,86.61
2022-12-09T15:06:21.439Z,86.78
2022-12-09T15:08:49.361Z,86.76
2022-12-09T15:11:17.086Z,86.69
2022-12-09T15:13:44.911Z,86.76
2022-12-09T15:16:12.537Z,87.01
2022-12-09T15:18:40.420Z,87.17
2022-12-09T15:21:08.120Z,87.29
2022-12-09T15:23:35.740Z,87.30
2022-12-09T15:26:03.556Z,87.23
2022-12-09T15:28:31.280Z,87.47
2022-12-09T15:30:58.992Z,87.51
2022-12-09T15:33:26.607Z,87.64
2022-12-09T15:35:54.002Z,87.88
2022-12-09T15:38:21.759Z,87.97
2022-12-09T15:40:49.291Z,87.91
2022-12-09T15:43:16.949Z,87.78
2022-12-09T15:45:44.593Z,87.96
2022-12-09T15:48:12.135Z,88.01
2022-12-09T15:50:40.192Z,87.95
2022-12-09T15:53:07.897Z,88.07
2022-12-09T15:55:36.098Z,88.07
2022-12-09T15:58:03.717Z,88.19
2022-12-09T16:00:31.296Z,88.28
2022-12-09T16:02:59.036Z,88.44
2022-12-09T16:05:26.563Z,88.44
2022-12-09T16:07:54.173Z,88.45
2022-12-09T16:10:22.037Z,88.55
2022-12-09T16:12:49.436Z,88.69
2022-12-09T16:15:17.154Z,88.80
2022-12-09T16:17:44.594Z,88.99
2022-12-09T16:20:12.173Z,88.76
2022-12-09T16:22:40.107Z,88.87
2022-12-09T16:25:15.314Z,88.97
2022-12-09T16:27:43.308Z,89.07
2022-12-09T16:30:11.098Z,89.00
2022-12-09T16:32:38.610Z,89.11
2022-12-09T16:35:06.204Z,89.27
2022-12-09T16:37:33.753Z,89.30
2022-12-09T16:40:01.528Z,89.17
2022-12-09T16:42:29.052Z,89.23
2022-12-09T16:44:56.789Z,89.22
2022-12-09T16:47:24.535Z,89.28
2022-12-09T16:49:52.179Z,89.43
2022-12-09T16:52:19.900Z,89.40
2022-12-09T16:54:47.437Z,89.46
2022-12-09T16:57:14.983Z,89.38
2022-12-09T16:59:42.527Z,89.36
2022-12-09T17:02:10.048Z,89.46
2022-12-09T17:04:38.044Z,89.46
2022-12-09T17:07:05.772Z,89.42
2022-12-09T17:09:33.245Z,89.66
2022-12-09T17:12:00.649Z,89.55
2022-12-09T17:14:28.108Z,89.63
2022-12-09T17:16:56.175Z,89.46
2022-12-09T17:19:24.243Z,89.52
2022-12-09T17:21:51.868Z,89.50
2022-12-09T17:24:19.268Z,89.53
2022-12-09T17:26:46.721Z,89.71
2022-12-09T17:29:14.577Z,89.68
2022-12-09T17:31:41.985Z,89.78
2022-12-09T17:34:09.989Z,89.87
2022-12-09T17:36:37.546Z,89.73
2022-12-09T17:39:05.477Z,89.73
2022-12-09T17:41:33.044Z,89.80
2022-12-09T17:44:00.724Z,89.83
2022-12-09T17:46:28.498Z,89.95
2022-12-09T17:48:56.003Z,89.99
2022-12-09T17:51:23.490Z,90.04
2022-12-09T17:53:50.909Z,90.14
2022-12-09T17:56:18.400Z,90.04
2022-12-09T17:58:46.100Z,90.29
2022-12-09T18:01:13.520Z,90.37
2022-12-09T18:04:01.342Z,90.45
2022-12-09T18:06:29.852Z,90.53
2022-12-09T18:08:57.538Z,90.45
2022-12-09T18:11:25.301Z,90.74
2022-12-09T18:13:52.963Z,90.62
2022-12-09T18:16:20.592Z,90.77
2022-12-09T18:18:48.305Z,90.76
2022-12-09T18:21:16.615Z,90.82
2022-12-09T18:23:44.300Z,90.67
2022-12-09T18:26:11.989Z,90.73
2022-12-09T18:28:39.737Z,90.86
2022-12-09T18:31:07.289Z,90.75
2022-12-09T18:33:35.169Z,90.82
2022-12-09T18:36:02.769Z,90.86
2022-12-09T18:38:30.466Z,90.82
2022-12-09T18:40:57.920Z,90.82
2022-12-09T18:43:25.408Z,90.96
2022-12-09T18:45:52.854Z,90.96
2022-12-09T18:48:20.847Z,90.86
2022-12-09T18:50:48.351Z,90.81
2022-12-09T18:53:15.730Z,90.83
2022-12-09T18:55:43.144Z,90.87
2022-12-09T18:58:10.716Z,90.99
2022-12-09T19:00:38.112Z,91.03
2022-12-09T19:03:06.194Z,91.15
2022-12-09T19:05:33.935Z,91.16
2022-12-09T19:08:01.437Z,91.09
2022-12-09T19:10:28.874Z,91.01
2022-12-09T19:12:56.970Z,91.11
2022-12-09T19:15:24.645Z,91.32
2022-12-09T19:17:52.218Z,91.33
2022-12-09T19:20:20.095Z,91.38
2022-12-09T19:22:47.467Z,91.27
2022-12-09T19:25:16.107Z,91.23
2022-12-09T19:27:43.762Z,91.23
2022-12-09T19:30:11.211Z,91.23
2022-12-09T19:32:52.823Z,91.27
2022-12-09T19:35:21.494Z,91.34
2022-12-09T19:37:48.870Z,91.41
2022-12-09T19:40:16.561Z,91.50
2022-12-09T19:42:43.981Z,91.40
2022-12-09T19:45:14.136Z,91.43
2022-12-09T19:47:42.106Z,91.42
2022-12-09T19:50:10.007Z,91.48
2022-12-09T19:52:37.739Z,91.47
2022-12-09T19:55:05.131Z,91.41
2022-12-09T19:57:32.564Z,91.36
2022-12-09T19:59:59.979Z,91.27
2022-12-09T20:02:27.548Z,91.46
2022-12-09T20:04:55.056Z,91.48
2022-12-09T20:07:22.451Z,91.54
2022-12-09T20:09:49.835Z,91.50
2022-12-09T20:12:17.410Z,91.56
2022-12-09T20:14:44.950Z,91.49
2022-12-09T20:17:12.344Z,91.45
2022-12-09T20:19:39.775Z,91.46
2022-12-09T20:22:07.193Z,91.22
2022-12-09T20:24:34.604Z,91.29
2022-12-09T20:27:02.149Z,91.40
2022-12-09T20:29:35.589Z,91.35
2022-12-09T20:32:05.928Z,91.54
2022-12-09T20:34:33.483Z,91.48
2022-12-09T20:37:00.989Z,91.47
2022-12-09T20:39:28.397Z,91.43
2022-12-09T20:41:55.776Z,91.42
2022-12-09T20:44:23.191Z,91.45
2022-12-09T20:46:50.631Z,91.52
2022-12-09T20:49:18.034Z,91.35
2022-12-09T20:51:45.483Z,91.50
2022-12-09T20:54:13.263Z,91.47
2022-12-09T20:56:40.969Z,91.53
2022-12-09T20:59:08.685Z,91.34
2022-12-09T21:01:36.094Z,91.34
2022-12-09T21:04:03.666Z,91.40
2022-12-09T21:06:31.136Z,91.53
2022-12-09T21:08:58.517Z,91.58
2022-12-09T21:11:25.925Z,91.66
2022-12-09T21:13:53.289Z,91.46
2022-12-09T21:16:20.699Z,91.58
2022-12-09T21:18:48.163Z,91.48
2022-12-09T21:21:15.582Z,91.54
2022-12-09T21:23:42.991Z,91.68
2022-12-09T21:26:10.572Z,91.65
2022-12-09T21:28:38.190Z,91.75
2022-12-09T21:31:05.863Z,91.78
2022-12-09T21:33:33.257Z,91.75
2022-12-09T21:36:00.961Z,91.60
2022-12-09T21:38:28.360Z,91.56
2022-12-09T21:40:55.814Z,91.71
2022-12-09T21:43:23.195Z,91.75
2022-12-09T21:45:50.657Z,91.78
2022-12-09T21:48:18.062Z,91.79
2022-12-09T21:50:45.457Z,91.86
2022-12-09T21:53:12.811Z,91.72
2022-12-09T21:55:40.354Z,91.63
2022-12-09T21:58:08.047Z,91.66
2022-12-09T22:00:35.613Z,91.73
2022-12-09T22:03:03.052Z,91.69
2022-12-09T22:05:30.607Z,91.84
2022-12-09T22:07:58.321Z,91.79
2022-12-09T22:10:25.951Z,91.83
2022-12-09T22:12:53.477Z,91.78
2022-12-09T22:15:21.299Z,91.70
2022-12-09T22:17:48.796Z,91.78
2022-12-09T22:20:54.649Z,91.72
2022-12-09T22:23:03.800Z,91.73
2022-12-09T22:25:31.320Z,91.77
2022-12-09T22:27:58.976Z,91.72
2022-12-09T22:30:26.425Z,91.80
2022-12-09T22:32:53.996Z,91.79
2022-12-09T22:35:21.348Z,91.71
2022-12-09T22:37:48.910Z,91.75
2022-12-09T22:40:16.391Z,91.76
2022-12-09T22:42:43.936Z,91.64
2022-12-09T22:45:11.404Z,91.71
2022-12-09T22:47:39.020Z,91.76
2022-12-09T22:50:07.117Z,91.81
2022-12-09T22:52:35.048Z,92.05
2022-12-09T22:55:02.435Z,92.31
2022-12-09T22:57:29.801Z,92.00
2022-12-09T22:59:57.204Z,92.04
2022-12-09T23:02:24.735Z,92.02
2022-12-09T23:04:52.481Z,92.14
2022-12-09T23:07:19.852Z,92.09
2022-12-09T23:09:47.470Z,92.10
2022-12-09T23:12:14.856Z,92.12
2022-12-09T23:14:42.380Z,92.22
2022-12-09T23:17:10.122Z,92.26
2022-12-09T23:19:37.610Z,92.15
2022-12-09T23:22:05.272Z,92.22
2022-12-09T23:24:32.629Z,92.16
2022-12-09T23:27:00.381Z,92.25
2022-12-09T23:29:27.884Z,92.30
2022-12-09T23:31:55.442Z,92.08
2022-12-09T23:34:23.088Z,92.40
2022-12-09T23:36:50.477Z,92.32
2022-12-09T23:39:17.890Z,92.49
2022-12-09T23:41:45.268Z,92.37
2022-12-09T23:44:12.820Z,92.42
2022-12-09T23:46:40.271Z,92.41
2022-12-09T23:49:07.844Z,92.44
2022-12-09T23:51:35.241Z,92.41
2022-12-09T23:54:02.643Z,92.35
2022-12-09T23:56:30.024Z,92.42
2022-12-09T23:58:57.437Z,92.39
